PWSweather.com
Personal Weather Stations
Station Observations
KNVELKO7
Elko, NV 89801

Elko, NV 89801

Lat: 40.963233, Lon: -115.592836

Elevation: 5230

Station Type: WS-2812

High Low Average
Temperature 103.0°F39.4°F 48.8°F9.3°F 78.3°F25.7°F
Dew Point 50.3°F10.2°F 20.9°F-6.2°F 33.0°F0.6°F
Winds 16.8 mph SW27.0 mph SW Calm Calm 3.9 mph 6.3 mph
Wind Gusts 17.2 mph27.7 mph -- 6.1 mph9.8 mph
Humidity 43% 8% 22%
Pressure 30.25 in1024.40 in 30.15 in1021.00 in -
Precipitation 0.00 in0.00 in - -
Hour Temp Dew Point Humidity Winds Wind Gusts Pressure Precip Precip Rate Daily Precip Total
12:03 AM 59.9°F15.5°C 23.7°F-4.6°C 25% 1.1 mph WSW1.8 kmh WSW 2.2 mph3.5 kmh 30.21 in1023.0 mb 0.00 in0.0 mm 0.00 in0.0 mm 0.00 in0.0 mm
12:08 AM 59.8°F15.4°C 23.5°F-4.7°C 25% 1.8 mph 2.9 kmh 2.2 mph3.5 kmh 30.21 in1023.0 mb 0.00 in0.0 mm 0.00 in0.0 mm 0.00 in0.0 mm
12:13 AM 59.6°F15.3°C 25.3°F-3.7°C 27% 2.7 mph E4.3 kmh E 2.9 mph4.7 kmh 30.21 in1023.0 mb 0.00 in0.0 mm 0.00 in0.0 mm 0.00 in0.0 mm
12:18 AM 59.4°F15.2°C 25.1°F-3.8°C 27% 1.7 mph E2.7 kmh E 2.9 mph4.7 kmh 30.21 in1023.0 mb 0.00 in0.0 mm 0.00 in0.0 mm 0.00 in0.0 mm
12:23 AM 59.0°F15.0°C 24.9°F-3.9°C 27% Calm Calm 2.9 mph4.7 kmh 30.21 in1023.0 mb 0.00 in0.0 mm 0.00 in0.0 mm 0.00 in0.0 mm
12:28 AM 58.9°F14.9°C 24.7°F-4.1°C 27% 0.4 mph ESE0.6 kmh ESE 1.8 mph2.9 kmh 30.21 in1023.0 mb 0.00 in0.0 mm 0.00 in0.0 mm 0.00 in0.0 mm
12:33 AM 58.9°F14.9°C 24.7°F-4.1°C 27% 2.0 mph 3.2 kmh 2.9 mph4.7 kmh 30.21 in1023.0 mb 0.00 in0.0 mm 0.00 in0.0 mm 0.00 in0.0 mm
12:38 AM 58.7°F14.8°C 25.5°F-3.6°C 28% 1.3 mph 2.1 kmh 2.9 mph4.7 kmh 30.21 in1023.0 mb 0.00 in0.0 mm 0.00 in0.0 mm 0.00 in0.0 mm
12:43 AM 58.5°F14.7°C 25.3°F-3.7°C 28% Calm Calm 1.8 mph2.9 kmh 30.21 in1023.0 mb 0.00 in0.0 mm 0.00 in0.0 mm 0.00 in0.0 mm
12:48 AM 58.7°F14.8°C 25.5°F-3.6°C 28% Calm Calm 1.3 mph2.1 kmh 30.21 in1023.0 mb 0.00 in0.0 mm 0.00 in0.0 mm 0.00 in0.0 mm
12:53 AM 58.5°F14.7°C 25.3°F-3.7°C 28% Calm Calm -- 30.21 in1023.0 mb 0.00 in0.0 mm 0.00 in0.0 mm 0.00 in0.0 mm
12:58 AM 58.5°F14.7°C 25.3°F-3.7°C 28% Calm Calm -- 30.21 in1023.0 mb 0.00 in0.0 mm 0.00 in0.0 mm 0.00 in0.0 mm
01:04 AM 58.1°F14.5°C 25.9°F-3.4°C 29% Calm Calm -- 30.21 in1023.0 mb 0.00 in0.0 mm 0.00 in0.0 mm 0.00 in0.0 mm
01:09 AM 58.3°F14.6°C 26.1°F-3.3°C 29% Calm Calm -- 30.21 in1023.0 mb 0.00 in0.0 mm 0.00 in0.0 mm 0.00 in0.0 mm
01:14 AM 58.7°F14.8°C 26.5°F-3.1°C 29% 1.4 mph 2.3 kmh 1.6 mph2.6 kmh 30.21 in1023.0 mb 0.00 in0.0 mm 0.00 in0.0 mm 0.00 in0.0 mm
01:19 AM 58.7°F14.8°C 26.5°F-3.1°C 29% 0.9 mph NNE1.4 kmh NNE 1.6 mph2.6 kmh 30.21 in1023.0 mb 0.00 in0.0 mm 0.00 in0.0 mm 0.00 in0.0 mm
01:24 AM 58.7°F14.8°C 26.5°F-3.1°C 29% 0.6 mph NNE1.0 kmh NNE 1.1 mph1.8 kmh 30.21 in1023.0 mb 0.00 in0.0 mm 0.00 in0.0 mm 0.00 in0.0 mm
01:29 AM 58.5°F14.7°C 25.3°F-3.7°C 28% 1.5 mph 2.4 kmh 2.7 mph4.3 kmh 30.21 in1023.0 mb 0.00 in0.0 mm 0.00 in0.0 mm 0.00 in0.0 mm
01:34 AM 58.1°F14.5°C 25.0°F-3.9°C 28% 2.7 mph 4.3 kmh 4.0 mph6.4 kmh 30.21 in1023.0 mb 0.00 in0.0 mm 0.00 in0.0 mm 0.00 in0.0 mm
01:40 AM 57.6°F14.2°C 24.5°F-4.2°C 28% 1.5 mph 2.4 kmh 4.0 mph6.4 kmh 30.21 in1023.0 mb 0.00 in0.0 mm 0.00 in0.0 mm 0.00 in0.0 mm
01:46 AM 57.4°F14.1°C 25.3°F-3.7°C 29% 1.3 mph 2.1 kmh 1.8 mph2.9 kmh 30.21 in1023.0 mb 0.00 in0.0 mm 0.00 in0.0 mm 0.00 in0.0 mm
01:51 AM 57.2°F14.0°C 25.1°F-3.8°C 29% 1.6 mph NE2.6 kmh NE 2.0 mph3.2 kmh 30.21 in1023.0 mb 0.00 in0.0 mm 0.00 in0.0 mm 0.00 in0.0 mm
01:57 AM 57.4°F14.1°C 25.3°F-3.7°C 29% 2.3 mph NE3.7 kmh NE 2.7 mph4.3 kmh 30.21 in1023.0 mb 0.00 in0.0 mm 0.00 in0.0 mm 0.00 in0.0 mm
02:02 AM 57.6°F14.2°C 25.5°F-3.6°C 29% 1.5 mph NE2.4 kmh NE 2.7 mph4.3 kmh 30.21 in1023.0 mb 0.00 in0.0 mm 0.00 in0.0 mm 0.00 in0.0 mm
02:07 AM 56.9°F13.8°C 23.9°F-4.5°C 28% 1.4 mph 2.3 kmh 2.5 mph4.0 kmh 30.21 in1023.0 mb 0.00 in0.0 mm 0.00 in0.0 mm 0.00 in0.0 mm
02:12 AM 56.3°F13.5°C 24.3°F-4.3°C 29% 1.4 mph 2.3 kmh 2.5 mph4.0 kmh 30.21 in1023.0 mb 0.00 in0.0 mm 0.00 in0.0 mm 0.00 in0.0 mm
02:17 AM 56.2°F13.4°C 24.2°F-4.3°C 29% 2.1 mph NNE3.4 kmh NNE 2.7 mph4.3 kmh 30.21 in1023.0 mb 0.00 in0.0 mm 0.00 in0.0 mm 0.00 in0.0 mm
02:22 AM 56.0°F13.3°C 24.9°F-3.9°C 30% 2.7 mph NNE4.3 kmh NNE 2.9 mph4.7 kmh 30.21 in1023.0 mb 0.00 in0.0 mm 0.00 in0.0 mm 0.00 in0.0 mm
02:27 AM 56.3°F13.5°C 25.3°F-3.7°C 30% 2.2 mph NNE3.5 kmh NNE 3.6 mph5.8 kmh 30.21 in1023.0 mb 0.00 in0.0 mm 0.00 in0.0 mm 0.00 in0.0 mm
02:32 AM 56.5°F13.6°C 25.5°F-3.6°C 30% 2.6 mph NNE4.2 kmh NNE 3.6 mph5.8 kmh 30.21 in1023.0 mb 0.00 in0.0 mm 0.00 in0.0 mm 0.00 in0.0 mm
02:37 AM 55.8°F13.2°C 24.9°F-3.9°C 30% 1.5 mph 2.4 kmh 3.4 mph5.5 kmh 30.21 in1023.0 mb 0.00 in0.0 mm 0.00 in0.0 mm 0.00 in0.0 mm
02:42 AM 55.1°F12.8°C 24.9°F-3.9°C 31% 1.5 mph 2.4 kmh 3.1 mph5.0 kmh 30.21 in1023.0 mb 0.00 in0.0 mm 0.00 in0.0 mm 0.00 in0.0 mm
02:47 AM 54.4°F12.4°C 23.6°F-4.7°C 30% 2.3 mph 3.7 kmh 3.4 mph5.5 kmh 30.21 in1023.0 mb 0.00 in0.0 mm 0.00 in0.0 mm 0.00 in0.0 mm
02:53 AM 53.8°F12.1°C 23.9°F-4.5°C 31% 2.8 mph 4.5 kmh 3.4 mph5.5 kmh 30.21 in1023.0 mb 0.00 in0.0 mm 0.00 in0.0 mm 0.00 in0.0 mm
02:58 AM 54.0°F12.2°C 24.7°F-4.1°C 32% 1.1 mph 1.8 kmh 2.9 mph4.7 kmh 30.21 in1023.0 mb 0.00 in0.0 mm 0.00 in0.0 mm 0.00 in0.0 mm
03:03 AM 53.6°F12.0°C 23.8°F-4.6°C 31% 2.3 mph 3.7 kmh 3.4 mph5.5 kmh 30.21 in1023.0 mb 0.00 in0.0 mm 0.00 in0.0 mm 0.00 in0.0 mm
03:08 AM 53.3°F11.8°C 24.1°F-4.4°C 32% 3.6 mph NNE5.8 kmh NNE 4.0 mph6.4 kmh 30.21 in1023.0 mb 0.00 in0.0 mm 0.00 in0.0 mm 0.00 in0.0 mm
03:13 AM 53.6°F12.0°C 25.1°F-3.8°C 33% 2.0 mph NNE3.2 kmh NNE 4.0 mph6.4 kmh 30.21 in1023.0 mb 0.00 in0.0 mm 0.00 in0.0 mm 0.00 in0.0 mm
03:18 AM 53.8°F12.1°C 25.2°F-3.8°C 33% 0.6 mph ENE1.0 kmh ENE 4.0 mph6.4 kmh 30.21 in1023.0 mb 0.00 in0.0 mm 0.00 in0.0 mm 0.00 in0.0 mm
03:23 AM 53.6°F12.0°C 25.1°F-3.8°C 33% 1.9 mph NNE3.1 kmh NNE 2.0 mph3.2 kmh 30.21 in1023.0 mb 0.00 in0.0 mm 0.00 in0.0 mm 0.00 in0.0 mm
03:28 AM 53.6°F12.0°C 25.1°F-3.8°C 33% 0.7 mph NNE1.1 kmh NNE 2.5 mph4.0 kmh 30.22 in1023.4 mb 0.00 in0.0 mm 0.00 in0.0 mm 0.00 in0.0 mm
03:33 AM 53.3°F11.8°C 24.8°F-4.0°C 33% 1.6 mph NNW2.6 kmh NNW 2.5 mph4.0 kmh 30.21 in1023.0 mb 0.00 in0.0 mm 0.00 in0.0 mm 0.00 in0.0 mm
03:38 AM 52.9°F11.6°C 24.5°F-4.2°C 33% Calm Calm 1.6 mph2.6 kmh 30.22 in1023.4 mb 0.00 in0.0 mm 0.00 in0.0 mm 0.00 in0.0 mm
03:43 AM 52.2°F11.2°C 23.8°F-4.6°C 33% 0.8 mph NNW1.3 kmh NNW 1.1 mph1.8 kmh 30.22 in1023.4 mb 0.00 in0.0 mm 0.00 in0.0 mm 0.00 in0.0 mm
03:48 AM 51.7°F10.9°C 24.0°F-4.4°C 34% 0.8 mph NE1.3 kmh NE 1.8 mph2.9 kmh 30.22 in1023.4 mb 0.00 in0.0 mm 0.00 in0.0 mm 0.00 in0.0 mm
03:53 AM 51.3°F10.7°C 23.7°F-4.6°C 34% 0.7 mph NNE1.1 kmh NNE 1.8 mph2.9 kmh 30.22 in1023.4 mb 0.00 in0.0 mm 0.00 in0.0 mm 0.00 in0.0 mm
03:58 AM 50.9°F10.5°C 22.7°F-5.2°C 33% 3.1 mph N5.0 kmh N 3.4 mph5.5 kmh 30.22 in1023.4 mb 0.00 in0.0 mm 0.00 in0.0 mm 0.00 in0.0 mm
04:04 AM 50.9°F10.5°C 23.3°F-4.8°C 34% 2.6 mph 4.2 kmh 3.4 mph5.5 kmh 30.21 in1023.0 mb 0.00 in0.0 mm 0.00 in0.0 mm 0.00 in0.0 mm
04:09 AM 50.8°F10.4°C 23.2°F-4.9°C 34% 1.7 mph 2.7 kmh 3.4 mph5.5 kmh 30.22 in1023.4 mb 0.00 in0.0 mm 0.00 in0.0 mm 0.00 in0.0 mm
04:14 AM 50.8°F10.4°C 23.2°F-4.9°C 34% 2.3 mph 3.7 kmh 2.5 mph4.0 kmh 30.22 in1023.4 mb 0.00 in0.0 mm 0.00 in0.0 mm 0.00 in0.0 mm
04:19 AM 50.9°F10.5°C 24.0°F-4.4°C 35% 2.3 mph 3.7 kmh 2.5 mph4.0 kmh 30.22 in1023.4 mb 0.00 in0.0 mm 0.00 in0.0 mm 0.00 in0.0 mm
04:24 AM 51.1°F10.6°C 24.8°F-4.0°C 36% 1.7 mph 2.7 kmh 2.5 mph4.0 kmh 30.22 in1023.4 mb 0.00 in0.0 mm 0.00 in0.0 mm 0.00 in0.0 mm
04:29 AM 51.3°F10.7°C 25.0°F-3.9°C 36% 1.5 mph 2.4 kmh 2.5 mph4.0 kmh 30.22 in1023.4 mb 0.00 in0.0 mm 0.00 in0.0 mm 0.00 in0.0 mm
04:33 AM 51.5°F10.8°C 25.2°F-3.8°C 36% 1.9 mph 3.1 kmh 2.0 mph3.2 kmh 30.22 in1023.4 mb 0.00 in0.0 mm 0.00 in0.0 mm 0.00 in0.0 mm
04:38 AM 51.7°F10.9°C 25.4°F-3.7°C 36% 1.5 mph 2.4 kmh 3.1 mph5.0 kmh 30.22 in1023.4 mb 0.00 in0.0 mm 0.00 in0.0 mm 0.00 in0.0 mm
04:43 AM 51.5°F10.8°C 25.2°F-3.8°C 36% Calm Calm 3.1 mph5.0 kmh 30.22 in1023.4 mb 0.00 in0.0 mm 0.00 in0.0 mm 0.00 in0.0 mm
04:48 AM 50.6°F10.3°C 24.4°F-4.2°C 36% 2.3 mph 3.7 kmh 2.9 mph4.7 kmh 30.22 in1023.4 mb 0.00 in0.0 mm 0.00 in0.0 mm 0.00 in0.0 mm
04:53 AM 49.5°F9.7°C 22.8°F-5.1°C 35% 2.6 mph 4.2 kmh 2.9 mph4.7 kmh 30.22 in1023.4 mb 0.00 in0.0 mm 0.00 in0.0 mm 0.00 in0.0 mm
04:58 AM 48.8°F9.3°C 22.9°F-5.1°C 36% 2.5 mph N4.0 kmh N 2.7 mph4.3 kmh 30.22 in1023.4 mb 0.00 in0.0 mm 0.00 in0.0 mm 0.00 in0.0 mm
05:04 AM 49.0°F9.4°C 23.7°F-4.6°C 37% 2.3 mph 3.7 kmh 2.5 mph4.0 kmh 30.22 in1023.4 mb 0.00 in0.0 mm 0.00 in0.0 mm 0.00 in0.0 mm
05:09 AM 49.1°F9.5°C 23.8°F-4.6°C 37% 3.0 mph 4.8 kmh 3.6 mph5.8 kmh 30.22 in1023.4 mb 0.00 in0.0 mm 0.00 in0.0 mm 0.00 in0.0 mm
05:14 AM 49.3°F9.6°C 24.7°F-4.1°C 38% 2.3 mph 3.7 kmh 3.6 mph5.8 kmh 30.22 in1023.4 mb 0.00 in0.0 mm 0.00 in0.0 mm 0.00 in0.0 mm
05:19 AM 49.5°F9.7°C 24.9°F-3.9°C 38% 3.4 mph 5.5 kmh 3.4 mph5.5 kmh 30.23 in1023.7 mb 0.00 in0.0 mm 0.00 in0.0 mm 0.00 in0.0 mm
05:24 AM 49.9°F9.9°C 25.1°F-3.8°C 38% 2.6 mph 4.2 kmh 3.4 mph5.5 kmh 30.23 in1023.7 mb 0.00 in0.0 mm 0.00 in0.0 mm 0.00 in0.0 mm
05:29 AM 50.0°F10.0°C 25.3°F-3.7°C 38% 2.5 mph NE4.0 kmh NE 3.4 mph5.5 kmh 30.23 in1023.7 mb 0.00 in0.0 mm 0.00 in0.0 mm 0.00 in0.0 mm
05:35 AM 50.0°F10.0°C 25.9°F-3.4°C 39% 1.3 mph NE2.1 kmh NE 3.1 mph5.0 kmh 30.23 in1023.7 mb 0.00 in0.0 mm 0.00 in0.0 mm 0.00 in0.0 mm
05:41 AM 49.9°F9.9°C 25.1°F-3.8°C 38% 2.6 mph 4.2 kmh 2.9 mph4.7 kmh 30.23 in1023.7 mb 0.00 in0.0 mm 0.00 in0.0 mm 0.00 in0.0 mm
05:46 AM 49.9°F9.9°C 25.1°F-3.8°C 38% 1.1 mph 1.8 kmh 2.9 mph4.7 kmh 30.23 in1023.7 mb 0.00 in0.0 mm 0.00 in0.0 mm 0.00 in0.0 mm
05:51 AM 50.2°F10.1°C 26.8°F-2.9°C 40% 2.5 mph N4.0 kmh N 2.9 mph4.7 kmh 30.23 in1023.7 mb 0.00 in0.0 mm 0.00 in0.0 mm 0.00 in0.0 mm
05:56 AM 50.4°F10.2°C 27.6°F-2.4°C 41% Calm Calm 2.9 mph4.7 kmh 30.23 in1023.7 mb 0.00 in0.0 mm 0.00 in0.0 mm 0.00 in0.0 mm
06:02 AM 50.8°F10.4°C 27.8°F-2.3°C 41% 0.4 mph NNE0.6 kmh NNE 2.2 mph3.5 kmh 30.23 in1023.7 mb 0.00 in0.0 mm 0.00 in0.0 mm 0.00 in0.0 mm
06:07 AM 51.5°F10.8°C 28.5°F-1.9°C 41% Calm Calm 1.3 mph2.1 kmh 30.24 in1024.0 mb 0.00 in0.0 mm 0.00 in0.0 mm 0.00 in0.0 mm
06:12 AM 52.4°F11.3°C 29.4°F-1.4°C 41% Calm Calm 1.1 mph1.8 kmh 30.24 in1024.0 mb 0.00 in0.0 mm 0.00 in0.0 mm 0.00 in0.0 mm
06:17 AM 53.6°F12.0°C 30.4°F-0.9°C 41% Calm Calm 1.1 mph1.8 kmh 30.24 in1024.0 mb 0.00 in0.0 mm 0.00 in0.0 mm 0.00 in0.0 mm
06:22 AM 54.7°F12.6°C 31.4°F-0.3°C 41% 2.6 mph W4.2 kmh W 3.6 mph5.8 kmh 30.25 in1024.4 mb 0.00 in0.0 mm 0.00 in0.0 mm 0.00 in0.0 mm
06:27 AM 54.9°F12.7°C 31.1°F-0.5°C 40% 2.0 mph SW3.2 kmh SW 3.6 mph5.8 kmh 30.25 in1024.4 mb 0.00 in0.0 mm 0.00 in0.0 mm 0.00 in0.0 mm
06:32 AM 55.1°F12.8°C 31.8°F-0.1°C 41% Calm Calm 2.5 mph4.0 kmh 30.25 in1024.4 mb 0.00 in0.0 mm 0.00 in0.0 mm 0.00 in0.0 mm
06:37 AM 56.0°F13.3°C 32.6°F0.3°C 41% Calm Calm 0.4 mph0.6 kmh 30.25 in1024.4 mb 0.00 in0.0 mm 0.00 in0.0 mm 0.00 in0.0 mm
06:42 AM 56.9°F13.8°C 34.5°F1.4°C 43% Calm Calm -- 30.25 in1024.4 mb 0.00 in0.0 mm 0.00 in0.0 mm 0.00 in0.0 mm
06:47 AM 58.0°F14.4°C 34.4°F1.3°C 41% Calm Calm -- 30.25 in1024.4 mb 0.00 in0.0 mm 0.00 in0.0 mm 0.00 in0.0 mm
06:52 AM 59.0°F15.0°C 34.0°F1.1°C 39% 1.1 mph WSW1.8 kmh WSW 2.5 mph4.0 kmh 30.25 in1024.4 mb 0.00 in0.0 mm 0.00 in0.0 mm 0.00 in0.0 mm
06:57 AM 59.9°F15.5°C 35.6°F2.0°C 40% Calm Calm 2.5 mph4.0 kmh 30.25 in1024.4 mb 0.00 in0.0 mm 0.00 in0.0 mm 0.00 in0.0 mm
07:02 AM 60.7°F15.9°C 36.8°F2.7°C 41% 1.0 mph WSW1.6 kmh WSW 1.3 mph2.1 kmh 30.25 in1024.4 mb 0.00 in0.0 mm 0.00 in0.0 mm 0.00 in0.0 mm
07:07 AM 61.6°F16.4°C 37.6°F3.1°C 41% 0.7 mph S1.1 kmh S 1.1 mph1.8 kmh 30.25 in1024.4 mb 0.00 in0.0 mm 0.00 in0.0 mm 0.00 in0.0 mm
07:12 AM 62.6°F17.0°C 37.3°F2.9°C 39% 1.8 mph NE2.9 kmh NE 1.8 mph2.9 kmh 30.25 in1024.4 mb 0.00 in0.0 mm 0.00 in0.0 mm 0.00 in0.0 mm
07:17 AM 63.7°F17.6°C 38.3°F3.5°C 39% 1.5 mph ENE2.4 kmh ENE 1.8 mph2.9 kmh 30.25 in1024.4 mb 0.00 in0.0 mm 0.00 in0.0 mm 0.00 in0.0 mm
07:22 AM 64.4°F18.0°C 36.7°F2.6°C 36% 2.5 mph NE4.0 kmh NE 3.4 mph5.5 kmh 30.25 in1024.4 mb 0.00 in0.0 mm 0.00 in0.0 mm 0.00 in0.0 mm
07:27 AM 65.2°F18.4°C 38.1°F3.4°C 37% 1.6 mph ENE2.6 kmh ENE 3.4 mph5.5 kmh 30.25 in1024.4 mb 0.00 in0.0 mm 0.00 in0.0 mm 0.00 in0.0 mm
07:32 AM 66.1°F18.9°C 38.2°F3.4°C 36% 1.8 mph E2.9 kmh E 2.5 mph4.0 kmh 30.25 in1024.4 mb 0.00 in0.0 mm 0.00 in0.0 mm 0.00 in0.0 mm
07:37 AM 67.0°F19.4°C 38.3°F3.5°C 35% 1.9 mph NE3.1 kmh NE 2.7 mph4.3 kmh 30.25 in1024.4 mb 0.00 in0.0 mm 0.00 in0.0 mm 0.00 in0.0 mm
07:42 AM 67.7°F19.8°C 38.1°F3.4°C 34% 1.6 mph ENE2.6 kmh ENE 2.7 mph4.3 kmh 30.25 in1024.4 mb 0.00 in0.0 mm 0.00 in0.0 mm 0.00 in0.0 mm
07:47 AM 68.8°F20.4°C 39.1°F3.9°C 34% 0.8 mph ENE1.3 kmh ENE 2.5 mph4.0 kmh 30.25 in1024.4 mb 0.00 in0.0 mm 0.00 in0.0 mm 0.00 in0.0 mm
07:52 AM 69.5°F20.8°C 38.3°F3.5°C 32% 1.1 mph NW1.8 kmh NW 1.8 mph2.9 kmh 30.25 in1024.4 mb 0.00 in0.0 mm 0.00 in0.0 mm 0.00 in0.0 mm
07:58 AM 70.6°F21.4°C 39.3°F4.1°C 32% 1.1 mph 1.8 kmh 2.2 mph3.5 kmh 30.25 in1024.4 mb 0.00 in0.0 mm 0.00 in0.0 mm 0.00 in0.0 mm
08:04 AM 71.6°F22.0°C 41.0°F5.0°C 33% 1.1 mph ESE1.8 kmh ESE 2.2 mph3.5 kmh 30.25 in1024.4 mb 0.00 in0.0 mm 0.00 in0.0 mm 0.00 in0.0 mm
08:09 AM 72.5°F22.5°C 41.0°F5.0°C 32% Calm Calm 1.8 mph2.9 kmh 30.25 in1024.4 mb 0.00 in0.0 mm 0.00 in0.0 mm 0.00 in0.0 mm
08:14 AM 73.3°F22.9°C 40.0°F4.4°C 30% 1.0 mph 1.6 kmh 3.1 mph5.0 kmh 30.25 in1024.4 mb 0.00 in0.0 mm 0.00 in0.0 mm 0.00 in0.0 mm
08:19 AM 74.0°F23.3°C 40.6°F4.8°C 30% 1.1 mph ESE1.8 kmh ESE 3.1 mph5.0 kmh 30.25 in1024.4 mb 0.00 in0.0 mm 0.00 in0.0 mm 0.00 in0.0 mm
08:24 AM 74.9°F23.8°C 40.4°F4.7°C 29% 1.3 mph W2.1 kmh W 3.1 mph5.0 kmh 30.25 in1024.4 mb 0.00 in0.0 mm 0.00 in0.0 mm 0.00 in0.0 mm
08:29 AM 75.4°F24.1°C 39.9°F4.4°C 28% 2.7 mph WNW4.3 kmh WNW 3.4 mph5.5 kmh 30.25 in1024.4 mb 0.00 in0.0 mm 0.00 in0.0 mm 0.00 in0.0 mm
08:35 AM 76.0°F24.4°C 40.3°F4.6°C 28% 3.6 mph WSW5.8 kmh WSW 3.6 mph5.8 kmh 30.25 in1024.4 mb 0.00 in0.0 mm 0.00 in0.0 mm 0.00 in0.0 mm
08:39 AM 76.5°F24.7°C 40.9°F4.9°C 28% 1.5 mph WSW2.4 kmh WSW 3.6 mph5.8 kmh 30.25 in1024.4 mb 0.00 in0.0 mm 0.00 in0.0 mm 0.00 in0.0 mm
08:44 AM 77.2°F25.1°C 41.4°F5.2°C 28% 1.1 mph SE1.8 kmh SE 3.6 mph5.8 kmh 30.25 in1024.4 mb 0.00 in0.0 mm 0.00 in0.0 mm 0.00 in0.0 mm
08:49 AM 78.1°F25.6°C 40.1°F4.5°C 26% 0.4 mph W0.6 kmh W 4.0 mph6.4 kmh 30.25 in1024.4 mb 0.00 in0.0 mm 0.00 in0.0 mm 0.00 in0.0 mm
08:55 AM 78.1°F25.6°C 38.0°F3.3°C 24% 1.7 mph WSW2.7 kmh WSW 4.0 mph6.4 kmh 30.25 in1024.4 mb 0.00 in0.0 mm 0.00 in0.0 mm 0.00 in0.0 mm
09:01 AM 78.8°F26.0°C 39.6°F4.2°C 25% 2.5 mph WSW4.0 kmh WSW 4.7 mph7.6 kmh 30.25 in1024.4 mb 0.00 in0.0 mm 0.00 in0.0 mm 0.00 in0.0 mm
09:05 AM 79.2°F26.2°C 38.9°F3.8°C 24% 1.2 mph SSW1.9 kmh SSW 4.7 mph7.6 kmh 30.25 in1024.4 mb 0.00 in0.0 mm 0.00 in0.0 mm 0.00 in0.0 mm
09:10 AM 79.9°F26.6°C 41.6°F5.3°C 26% 2.0 mph S3.2 kmh S 4.7 mph7.6 kmh 30.25 in1024.4 mb 0.00 in0.0 mm 0.00 in0.0 mm 0.00 in0.0 mm
09:15 AM 81.4°F27.4°C 42.8°F6.0°C 26% 3.4 mph SE5.5 kmh SE 3.6 mph5.8 kmh 30.25 in1024.4 mb 0.00 in0.0 mm 0.00 in0.0 mm 0.00 in0.0 mm
09:20 AM 83.0°F28.3°C 44.2°F6.8°C 26% 2.7 mph S4.3 kmh S 4.0 mph6.4 kmh 30.25 in1024.4 mb 0.00 in0.0 mm 0.00 in0.0 mm 0.00 in0.0 mm
09:25 AM 83.9°F28.8°C 43.9°F6.6°C 25% 1.9 mph NE3.1 kmh NE 4.0 mph6.4 kmh 30.24 in1024.0 mb 0.00 in0.0 mm 0.00 in0.0 mm 0.00 in0.0 mm
09:30 AM 84.4°F29.1°C 42.2°F5.7°C 23% 4.3 mph SW6.9 kmh SW 4.5 mph7.2 kmh 30.24 in1024.0 mb 0.00 in0.0 mm 0.00 in0.0 mm 0.00 in0.0 mm
09:35 AM 84.8°F29.3°C 42.5°F5.8°C 23% 1.9 mph SW3.1 kmh SW 4.5 mph7.2 kmh 30.24 in1024.0 mb 0.00 in0.0 mm 0.00 in0.0 mm 0.00 in0.0 mm
09:40 AM 85.0°F29.4°C 42.7°F5.9°C 23% 3.0 mph SW4.8 kmh SW 5.4 mph8.7 kmh 30.24 in1024.0 mb 0.00 in0.0 mm 0.00 in0.0 mm 0.00 in0.0 mm
09:45 AM 85.3°F29.6°C 42.9°F6.1°C 23% 2.3 mph SSE3.7 kmh SSE 5.4 mph8.7 kmh 30.24 in1024.0 mb 0.00 in0.0 mm 0.00 in0.0 mm 0.00 in0.0 mm
09:50 AM 86.6°F30.3°C 44.0°F6.7°C 23% 2.0 mph NE3.2 kmh NE 4.7 mph7.6 kmh 30.24 in1024.0 mb 0.00 in0.0 mm 0.00 in0.0 mm 0.00 in0.0 mm
09:55 AM 87.5°F30.8°C 44.8°F7.1°C 23% 2.3 mph S3.7 kmh S 4.7 mph7.6 kmh 30.24 in1024.0 mb 0.00 in0.0 mm 0.00 in0.0 mm 0.00 in0.0 mm
10:01 AM 88.0°F31.1°C 40.3°F4.6°C 19% 3.2 mph 5.1 kmh 4.0 mph6.4 kmh 30.24 in1024.0 mb 0.00 in0.0 mm 0.00 in0.0 mm 0.00 in0.0 mm
10:06 AM 88.4°F31.3°C 43.5°F6.4°C 21% 1.1 mph SSE1.8 kmh SSE 4.0 mph6.4 kmh 30.23 in1023.7 mb 0.00 in0.0 mm 0.00 in0.0 mm 0.00 in0.0 mm
10:11 AM 89.3°F31.8°C 44.2°F6.8°C 21% 1.1 mph SSE1.8 kmh SSE 3.1 mph5.0 kmh 30.24 in1024.0 mb 0.00 in0.0 mm 0.00 in0.0 mm 0.00 in0.0 mm
10:16 AM 90.4°F32.4°C 46.2°F7.9°C 22% 3.3 mph SE5.3 kmh SE 3.8 mph6.1 kmh 30.24 in1024.0 mb 0.00 in0.0 mm 0.00 in0.0 mm 0.00 in0.0 mm
10:21 AM 91.4°F33.0°C 45.9°F7.7°C 21% 1.8 mph ESE2.9 kmh ESE 3.8 mph6.1 kmh 30.24 in1024.0 mb 0.00 in0.0 mm 0.00 in0.0 mm 0.00 in0.0 mm
10:26 AM 92.2°F33.4°C 46.5°F8.1°C 21% 2.9 mph SE4.7 kmh SE 3.8 mph6.1 kmh 30.24 in1024.0 mb 0.00 in0.0 mm 0.00 in0.0 mm 0.00 in0.0 mm
10:31 AM 93.1°F33.9°C 47.3°F8.5°C 21% 2.8 mph S4.5 kmh S 3.8 mph6.1 kmh 30.23 in1023.7 mb 0.00 in0.0 mm 0.00 in0.0 mm 0.00 in0.0 mm
10:36 AM 94.0°F34.4°C 45.1°F7.3°C 19% 2.3 mph E3.7 kmh E 3.6 mph5.8 kmh 30.23 in1023.7 mb 0.00 in0.0 mm 0.00 in0.0 mm 0.00 in0.0 mm
10:41 AM 94.1°F34.5°C 43.5°F6.4°C 18% 4.9 mph ENE7.9 kmh ENE 6.3 mph10.1 kmh 30.23 in1023.7 mb 0.00 in0.0 mm 0.00 in0.0 mm 0.00 in0.0 mm
10:46 AM 94.1°F34.5°C 43.5°F6.4°C 18% 2.1 mph SE3.4 kmh SE 6.3 mph10.1 kmh 30.23 in1023.7 mb 0.00 in0.0 mm 0.00 in0.0 mm 0.00 in0.0 mm
10:51 AM 94.9°F34.9°C 45.8°F7.7°C 19% 1.9 mph SSE3.1 kmh SSE 4.9 mph7.9 kmh 30.23 in1023.7 mb 0.00 in0.0 mm 0.00 in0.0 mm 0.00 in0.0 mm
10:56 AM 95.6°F35.3°C 48.2°F9.0°C 20% 5.3 mph S8.5 kmh S 6.7 mph10.8 kmh 30.23 in1023.7 mb 0.00 in0.0 mm 0.00 in0.0 mm 0.00 in0.0 mm
11:02 AM 96.1°F35.6°C 48.7°F9.3°C 20% 4.6 mph SSE7.4 kmh SSE 6.7 mph10.8 kmh 30.23 in1023.7 mb 0.00 in0.0 mm 0.00 in0.0 mm 0.00 in0.0 mm
11:07 AM 96.8°F36.0°C 47.5°F8.6°C 19% 2.3 mph WSW3.7 kmh WSW 6.0 mph9.7 kmh 30.23 in1023.7 mb 0.00 in0.0 mm 0.00 in0.0 mm 0.00 in0.0 mm
11:11 AM 96.3°F35.7°C 43.5°F6.4°C 17% 4.3 mph W6.9 kmh W 4.9 mph7.9 kmh 30.23 in1023.7 mb 0.00 in0.0 mm 0.00 in0.0 mm 0.00 in0.0 mm
11:16 AM 95.8°F35.4°C 43.0°F6.1°C 17% 5.4 mph S8.7 kmh S 5.8 mph9.3 kmh 30.23 in1023.7 mb 0.00 in0.0 mm 0.00 in0.0 mm 0.00 in0.0 mm
11:21 AM 95.8°F35.4°C 41.2°F5.1°C 16% 5.9 mph SW9.5 kmh SW 8.5 mph13.7 kmh 30.23 in1023.7 mb 0.00 in0.0 mm 0.00 in0.0 mm 0.00 in0.0 mm
11:27 AM 95.4°F35.2°C 39.2°F4.0°C 15% 3.5 mph NE5.6 kmh NE 8.5 mph13.7 kmh 30.23 in1023.7 mb 0.00 in0.0 mm 0.00 in0.0 mm 0.00 in0.0 mm
11:32 AM 95.6°F35.3°C 39.3°F4.1°C 15% 4.7 mph SW7.6 kmh SW 6.0 mph9.7 kmh 30.23 in1023.7 mb 0.00 in0.0 mm 0.00 in0.0 mm 0.00 in0.0 mm
11:37 AM 95.8°F35.4°C 41.2°F5.1°C 16% 5.0 mph SW8.0 kmh SW 6.0 mph9.7 kmh 30.23 in1023.7 mb 0.00 in0.0 mm 0.00 in0.0 mm 0.00 in0.0 mm
11:42 AM 95.8°F35.4°C 41.2°F5.1°C 16% 1.9 mph S3.1 kmh S 5.1 mph8.2 kmh 30.23 in1023.7 mb 0.00 in0.0 mm 0.00 in0.0 mm 0.00 in0.0 mm
11:47 AM 96.5°F35.8°C 43.7°F6.5°C 17% 4.2 mph SE6.8 kmh SE 8.3 mph13.4 kmh 30.23 in1023.7 mb 0.00 in0.0 mm 0.00 in0.0 mm 0.00 in0.0 mm
11:52 AM 97.6°F36.4°C 48.1°F8.9°C 19% 3.5 mph SW5.6 kmh SW 8.3 mph13.4 kmh 30.23 in1023.7 mb 0.00 in0.0 mm 0.00 in0.0 mm 0.00 in0.0 mm
11:57 AM 98.6°F37.0°C 45.4°F7.4°C 17% 3.6 mph S5.8 kmh S 6.0 mph9.7 kmh 30.22 in1023.4 mb 0.00 in0.0 mm 0.00 in0.0 mm 0.00 in0.0 mm
12:02 PM 99.5°F37.5°C 49.7°F9.8°C 19% 5.1 mph SW8.2 kmh SW 5.8 mph9.3 kmh 30.22 in1023.4 mb 0.00 in0.0 mm 0.00 in0.0 mm 0.00 in0.0 mm
12:07 PM 99.7°F37.6°C 48.1°F8.9°C 18% 3.2 mph S5.1 kmh S 5.4 mph8.7 kmh 30.22 in1023.4 mb 0.00 in0.0 mm 0.00 in0.0 mm 0.00 in0.0 mm
12:12 PM 99.5°F37.5°C 47.9°F8.8°C 18% 3.8 mph SE6.1 kmh SE 5.1 mph8.2 kmh 30.22 in1023.4 mb 0.00 in0.0 mm 0.00 in0.0 mm 0.00 in0.0 mm
12:17 PM 100.4°F38.0°C 48.6°F9.2°C 18% 5.5 mph E8.9 kmh E 5.6 mph9.0 kmh 30.22 in1023.4 mb 0.00 in0.0 mm 0.00 in0.0 mm 0.00 in0.0 mm
12:22 PM 101.0°F38.3°C 49.1°F9.5°C 18% 2.8 mph SSW4.5 kmh SSW 5.6 mph9.0 kmh 30.22 in1023.4 mb 0.00 in0.0 mm 0.00 in0.0 mm 0.00 in0.0 mm
12:28 PM 100.8°F38.2°C 47.1°F8.4°C 17% 2.9 mph SE4.7 kmh SE 6.3 mph10.1 kmh 30.21 in1023.0 mb 0.00 in0.0 mm 0.00 in0.0 mm 0.00 in0.0 mm
12:33 PM 100.1°F37.8°C 44.7°F7.1°C 16% 5.9 mph E9.5 kmh E 6.3 mph10.1 kmh 30.21 in1023.0 mb 0.00 in0.0 mm 0.00 in0.0 mm 0.00 in0.0 mm
12:38 PM 99.7°F37.6°C 46.3°F7.9°C 17% 4.1 mph SSE6.6 kmh SSE 6.0 mph9.7 kmh 30.21 in1023.0 mb 0.00 in0.0 mm 0.00 in0.0 mm 0.00 in0.0 mm
12:43 PM 100.1°F37.8°C 44.7°F7.1°C 16% 4.5 mph SW7.2 kmh SW 6.0 mph9.7 kmh 30.21 in1023.0 mb 0.00 in0.0 mm 0.00 in0.0 mm 0.00 in0.0 mm
12:48 PM 100.1°F37.8°C 46.5°F8.1°C 17% 3.7 mph S6.0 kmh S 6.0 mph9.7 kmh 30.21 in1023.0 mb 0.00 in0.0 mm 0.00 in0.0 mm 0.00 in0.0 mm
12:53 PM 101.2°F38.4°C 47.3°F8.5°C 17% 1.0 mph SE1.6 kmh SE 4.7 mph7.6 kmh 30.21 in1023.0 mb 0.00 in0.0 mm 0.00 in0.0 mm 0.00 in0.0 mm
12:59 PM 102.6°F39.2°C 50.3°F10.2°C 18% 4.6 mph SE7.4 kmh SE 4.7 mph7.6 kmh 30.21 in1023.0 mb 0.00 in0.0 mm 0.00 in0.0 mm 0.00 in0.0 mm
01:04 PM 102.4°F39.1°C 39.2°F4.0°C 12% 8.1 mph WNW13.0 kmh WNW 9.2 mph14.8 kmh 30.20 in1022.7 mb 0.00 in0.0 mm 0.00 in0.0 mm 0.00 in0.0 mm
01:10 PM 101.3°F38.5°C 42.0°F5.6°C 14% 2.1 mph ESE3.4 kmh ESE 9.2 mph14.8 kmh 30.20 in1022.7 mb 0.00 in0.0 mm 0.00 in0.0 mm 0.00 in0.0 mm
01:15 PM 101.9°F38.8°C 46.1°F7.8°C 16% 1.0 mph SE1.6 kmh SE 4.0 mph6.4 kmh 30.20 in1022.7 mb 0.00 in0.0 mm 0.00 in0.0 mm 0.00 in0.0 mm
01:20 PM 101.3°F38.5°C 36.6°F2.6°C 11% 5.3 mph WNW8.5 kmh WNW 7.6 mph12.2 kmh 30.20 in1022.7 mb 0.00 in0.0 mm 0.00 in0.0 mm 0.00 in0.0 mm
01:24 PM 100.6°F38.1°C 41.5°F5.3°C 14% 9.7 mph SW15.6 kmh SW 10.5 mph16.9 kmh 30.20 in1022.7 mb 0.00 in0.0 mm 0.00 in0.0 mm 0.00 in0.0 mm
01:29 PM 100.4°F38.0°C 41.4°F5.2°C 14% 9.3 mph SW15.0 kmh SW 11.4 mph18.3 kmh 30.20 in1022.7 mb 0.00 in0.0 mm 0.00 in0.0 mm 0.00 in0.0 mm
01:34 PM 100.4°F38.0°C 41.4°F5.2°C 14% 1.9 mph NW3.1 kmh NW 11.4 mph18.3 kmh 30.20 in1022.7 mb 0.00 in0.0 mm 0.00 in0.0 mm 0.00 in0.0 mm
01:39 PM 101.2°F38.4°C 45.5°F7.5°C 16% 6.9 mph S11.1 kmh S 7.8 mph12.6 kmh 30.20 in1022.7 mb 0.00 in0.0 mm 0.00 in0.0 mm 0.00 in0.0 mm
01:44 PM 102.2°F39.0°C 48.2°F9.0°C 17% 3.0 mph SSW4.8 kmh SSW 7.8 mph12.6 kmh 30.19 in1022.4 mb 0.00 in0.0 mm 0.00 in0.0 mm 0.00 in0.0 mm
01:49 PM 103.0°F39.4°C 43.3°F6.3°C 14% 11.0 mph SW17.7 kmh SW 14.1 mph22.7 kmh 30.19 in1022.4 mb 0.00 in0.0 mm 0.00 in0.0 mm 0.00 in0.0 mm
01:54 PM 102.1°F38.9°C 46.3°F7.9°C 16% 9.1 mph SSW14.6 kmh SSW 14.1 mph22.7 kmh 30.20 in1022.7 mb 0.00 in0.0 mm 0.00 in0.0 mm 0.00 in0.0 mm
02:00 PM 102.1°F38.9°C 46.3°F7.9°C 16% 1.9 mph SSW3.1 kmh SSW 14.1 mph22.7 kmh 30.19 in1022.4 mb 0.00 in0.0 mm 0.00 in0.0 mm 0.00 in0.0 mm
02:05 PM 103.0°F39.4°C 43.3°F6.3°C 14% 9.9 mph WSW15.9 kmh WSW 12.5 mph20.1 kmh 30.19 in1022.4 mb 0.00 in0.0 mm 0.00 in0.0 mm 0.00 in0.0 mm
02:10 PM 101.9°F38.8°C 38.9°F3.8°C 12% 9.4 mph SW15.1 kmh SW 13.4 mph21.6 kmh 30.19 in1022.4 mb 0.00 in0.0 mm 0.00 in0.0 mm 0.00 in0.0 mm
02:15 PM 101.5°F38.6°C 44.0°F6.7°C 15% 7.8 mph S12.6 kmh S 13.4 mph21.6 kmh 30.19 in1022.4 mb 0.00 in0.0 mm 0.00 in0.0 mm 0.00 in0.0 mm
02:20 PM 102.1°F38.9°C 42.6°F5.9°C 14% 5.8 mph SW9.3 kmh SW 9.2 mph14.8 kmh 30.19 in1022.4 mb 0.00 in0.0 mm 0.00 in0.0 mm 0.00 in0.0 mm
02:25 PM 101.5°F38.6°C 38.6°F3.7°C 12% 5.2 mph SW8.4 kmh SW 10.1 mph16.3 kmh 30.19 in1022.4 mb 0.00 in0.0 mm 0.00 in0.0 mm 0.00 in0.0 mm
02:30 PM 101.7°F38.7°C 38.7°F3.7°C 12% 8.3 mph SW13.4 kmh SW 10.1 mph16.3 kmh 30.19 in1022.4 mb 0.00 in0.0 mm 0.00 in0.0 mm 0.00 in0.0 mm
02:35 PM 102.1°F38.9°C 42.6°F5.9°C 14% 8.2 mph S13.2 kmh S 11.0 mph17.7 kmh 30.19 in1022.4 mb 0.00 in0.0 mm 0.00 in0.0 mm 0.00 in0.0 mm
02:40 PM 102.1°F38.9°C 42.6°F5.9°C 14% 12.2 mph S19.6 kmh S 12.3 mph19.8 kmh 30.19 in1022.4 mb 0.00 in0.0 mm 0.00 in0.0 mm 0.00 in0.0 mm
02:45 PM 102.1°F38.9°C 42.6°F5.9°C 14% 10.1 mph S16.3 kmh S 12.3 mph19.8 kmh 30.18 in1022.0 mb 0.00 in0.0 mm 0.00 in0.0 mm 0.00 in0.0 mm
02:50 PM 102.6°F39.2°C 43.0°F6.1°C 14% 7.8 mph SSW12.6 kmh SSW 10.5 mph16.9 kmh 30.18 in1022.0 mb 0.00 in0.0 mm 0.00 in0.0 mm 0.00 in0.0 mm
02:55 PM 102.6°F39.2°C 43.0°F6.1°C 14% 9.0 mph SW14.5 kmh SW 10.7 mph17.2 kmh 30.18 in1022.0 mb 0.00 in0.0 mm 0.00 in0.0 mm 0.00 in0.0 mm
03:00 PM 102.1°F38.9°C 39.0°F3.9°C 12% 8.6 mph SSW13.8 kmh SSW 13.2 mph21.2 kmh 30.18 in1022.0 mb 0.00 in0.0 mm 0.00 in0.0 mm 0.00 in0.0 mm
03:05 PM 101.5°F38.6°C 38.6°F3.7°C 12% 9.4 mph SSW15.1 kmh SSW 14.3 mph23.0 kmh 30.18 in1022.0 mb 0.00 in0.0 mm 0.00 in0.0 mm 0.00 in0.0 mm
03:10 PM 101.0°F38.3°C 41.8°F5.4°C 14% 6.5 mph S10.5 kmh S 14.3 mph23.0 kmh 30.18 in1022.0 mb 0.00 in0.0 mm 0.00 in0.0 mm 0.00 in0.0 mm
03:15 PM 101.5°F38.6°C 42.2°F5.7°C 14% 9.1 mph S14.6 kmh S 14.3 mph23.0 kmh 30.18 in1022.0 mb 0.00 in0.0 mm 0.00 in0.0 mm 0.00 in0.0 mm
03:20 PM 102.2°F39.0°C 42.8°F6.0°C 14% 11.8 mph SSW19.0 kmh SSW 13.4 mph21.6 kmh 30.17 in1021.7 mb 0.00 in0.0 mm 0.00 in0.0 mm 0.00 in0.0 mm
03:25 PM 102.1°F38.9°C 42.6°F5.9°C 14% 9.4 mph S15.1 kmh S 13.9 mph22.4 kmh 30.17 in1021.7 mb 0.00 in0.0 mm 0.00 in0.0 mm 0.00 in0.0 mm
03:30 PM 102.1°F38.9°C 42.6°F5.9°C 14% 5.7 mph S9.2 kmh S 14.3 mph23.0 kmh 30.17 in1021.7 mb 0.00 in0.0 mm 0.00 in0.0 mm 0.00 in0.0 mm
03:35 PM 102.2°F39.0°C 42.8°F6.0°C 14% 16.8 mph SW27.0 kmh SW 17.2 mph27.7 kmh 30.17 in1021.7 mb 0.00 in0.0 mm 0.00 in0.0 mm 0.00 in0.0 mm
03:40 PM 102.1°F38.9°C 39.0°F3.9°C 12% 11.4 mph SW18.3 kmh SW 17.2 mph27.7 kmh 30.17 in1021.7 mb 0.00 in0.0 mm 0.00 in0.0 mm 0.00 in0.0 mm
03:45 PM 101.5°F38.6°C 38.6°F3.7°C 12% 9.2 mph SW14.8 kmh SW 13.6 mph21.9 kmh 30.17 in1021.7 mb 0.00 in0.0 mm 0.00 in0.0 mm 0.00 in0.0 mm
03:50 PM 101.5°F38.6°C 42.2°F5.7°C 14% 3.5 mph SSW5.6 kmh SSW 13.4 mph21.6 kmh 30.17 in1021.7 mb 0.00 in0.0 mm 0.00 in0.0 mm 0.00 in0.0 mm
03:55 PM 101.9°F38.8°C 42.5°F5.8°C 14% 10.4 mph S16.7 kmh S 12.8 mph20.6 kmh 30.17 in1021.7 mb 0.00 in0.0 mm 0.00 in0.0 mm 0.00 in0.0 mm
04:00 PM 102.1°F38.9°C 42.6°F5.9°C 14% 10.8 mph S17.4 kmh S 13.4 mph21.6 kmh 30.17 in1021.7 mb 0.00 in0.0 mm 0.00 in0.0 mm 0.00 in0.0 mm
04:05 PM 102.2°F39.0°C 44.6°F7.0°C 15% 5.2 mph SW8.4 kmh SW 13.4 mph21.6 kmh 30.17 in1021.7 mb 0.00 in0.0 mm 0.00 in0.0 mm 0.00 in0.0 mm
04:10 PM 102.6°F39.2°C 43.0°F6.1°C 14% 4.9 mph SW7.9 kmh SW 11.4 mph18.3 kmh 30.16 in1021.3 mb 0.00 in0.0 mm 0.00 in0.0 mm 0.00 in0.0 mm
04:15 PM 102.6°F39.2°C 39.4°F4.1°C 12% 8.3 mph SSW13.4 kmh SSW 11.4 mph18.3 kmh 30.16 in1021.3 mb 0.00 in0.0 mm 0.00 in0.0 mm 0.00 in0.0 mm
04:20 PM 102.1°F38.9°C 39.0°F3.9°C 12% 11.5 mph SSW18.5 kmh SSW 13.9 mph22.4 kmh 30.16 in1021.3 mb 0.00 in0.0 mm 0.00 in0.0 mm 0.00 in0.0 mm
04:25 PM 101.5°F38.6°C 38.6°F3.7°C 12% 7.7 mph S12.4 kmh S 14.8 mph23.8 kmh 30.16 in1021.3 mb 0.00 in0.0 mm 0.00 in0.0 mm 0.00 in0.0 mm
04:30 PM 101.9°F38.8°C 37.0°F2.8°C 11% 12.7 mph SW20.4 kmh SW 14.8 mph23.8 kmh 30.16 in1021.3 mb 0.00 in0.0 mm 0.00 in0.0 mm 0.00 in0.0 mm
04:35 PM 101.5°F38.6°C 38.6°F3.7°C 12% 10.1 mph S16.3 kmh S 14.5 mph23.3 kmh 30.16 in1021.3 mb 0.00 in0.0 mm 0.00 in0.0 mm 0.00 in0.0 mm
04:40 PM 101.2°F38.4°C 36.6°F2.6°C 11% 5.8 mph SW9.3 kmh SW 11.0 mph17.7 kmh 30.16 in1021.3 mb 0.00 in0.0 mm 0.00 in0.0 mm 0.00 in0.0 mm
04:45 PM 101.2°F38.4°C 36.6°F2.6°C 11% 9.6 mph SW15.4 kmh SW 12.1 mph19.5 kmh 30.16 in1021.3 mb 0.00 in0.0 mm 0.00 in0.0 mm 0.00 in0.0 mm
04:50 PM 100.6°F38.1°C 36.1°F2.3°C 11% 7.7 mph S12.4 kmh S 12.1 mph19.5 kmh 30.16 in1021.3 mb 0.00 in0.0 mm 0.00 in0.0 mm 0.00 in0.0 mm
04:55 PM 100.4°F38.0°C 36.0°F2.2°C 11% 11.2 mph WSW18.0 kmh WSW 13.4 mph21.6 kmh 30.16 in1021.3 mb 0.00 in0.0 mm 0.00 in0.0 mm 0.00 in0.0 mm
05:01 PM 100.4°F38.0°C 37.8°F3.2°C 12% 7.7 mph SSW12.4 kmh SSW 13.4 mph21.6 kmh 30.16 in1021.3 mb 0.00 in0.0 mm 0.00 in0.0 mm 0.00 in0.0 mm
05:06 PM 100.6°F38.1°C 36.1°F2.3°C 11% 5.2 mph WSW8.4 kmh WSW 10.1 mph16.3 kmh 30.15 in1021.0 mb 0.00 in0.0 mm 0.00 in0.0 mm 0.00 in0.0 mm
05:11 PM 99.9°F37.7°C 35.6°F2.0°C 11% 14.0 mph SSW22.5 kmh SSW 15.2 mph24.5 kmh 30.15 in1021.0 mb 0.00 in0.0 mm 0.00 in0.0 mm 0.00 in0.0 mm
05:15 PM 99.4°F37.4°C 35.1°F1.7°C 11% 8.2 mph SW13.2 kmh SW 15.2 mph24.5 kmh 30.16 in1021.3 mb 0.00 in0.0 mm 0.00 in0.0 mm 0.00 in0.0 mm
05:20 PM 99.2°F37.3°C 35.0°F1.7°C 11% 11.4 mph WSW18.3 kmh WSW 15.2 mph24.5 kmh 30.15 in1021.0 mb 0.00 in0.0 mm 0.00 in0.0 mm 0.00 in0.0 mm
05:25 PM 98.8°F37.1°C 34.8°F1.6°C 11% 11.3 mph SW18.2 kmh SW 15.0 mph24.1 kmh 30.15 in1021.0 mb 0.00 in0.0 mm 0.00 in0.0 mm 0.00 in0.0 mm
05:30 PM 98.6°F37.0°C 32.8°F0.4°C 10% 8.6 mph WSW13.8 kmh WSW 15.0 mph24.1 kmh 30.15 in1021.0 mb 0.00 in0.0 mm 0.00 in0.0 mm 0.00 in0.0 mm
05:35 PM 98.8°F37.1°C 34.8°F1.6°C 11% 9.3 mph SW15.0 kmh SW 12.8 mph20.6 kmh 30.15 in1021.0 mb 0.00 in0.0 mm 0.00 in0.0 mm 0.00 in0.0 mm
05:40 PM 99.0°F37.2°C 34.8°F1.6°C 11% 1.2 mph SE1.9 kmh SE 12.8 mph20.6 kmh 30.15 in1021.0 mb 0.00 in0.0 mm 0.00 in0.0 mm 0.00 in0.0 mm
05:45 PM 99.4°F37.4°C 33.3°F0.7°C 10% 7.2 mph WSW11.6 kmh WSW 8.5 mph13.7 kmh 30.15 in1021.0 mb 0.00 in0.0 mm 0.00 in0.0 mm 0.00 in0.0 mm
05:50 PM 98.6°F37.0°C 32.8°F0.4°C 9% 9.1 mph W14.6 kmh W 16.3 mph26.2 kmh 30.15 in1021.0 mb 0.00 in0.0 mm 0.00 in0.0 mm 0.00 in0.0 mm
05:55 PM 97.9°F36.6°C 32.2°F0.1°C 10% 8.5 mph WSW13.7 kmh WSW 16.3 mph26.2 kmh 30.15 in1021.0 mb 0.00 in0.0 mm 0.00 in0.0 mm 0.00 in0.0 mm
06:01 PM 97.4°F36.3°C 31.8°F-0.1°C 10% 7.1 mph WSW11.4 kmh WSW 11.9 mph19.2 kmh 30.15 in1021.0 mb 0.00 in0.0 mm 0.00 in0.0 mm 0.00 in0.0 mm
06:06 PM 97.4°F36.3°C 31.8°F-0.1°C 10% 8.2 mph WSW13.2 kmh WSW 12.1 mph19.5 kmh 30.15 in1021.0 mb 0.00 in0.0 mm 0.00 in0.0 mm 0.00 in0.0 mm
06:11 PM 97.0°F36.1°C 31.5°F-0.3°C 8% 10.3 mph W16.6 kmh W 12.1 mph19.5 kmh 30.15 in1021.0 mb 0.00 in0.0 mm 0.00 in0.0 mm 0.00 in0.0 mm
06:16 PM 96.7°F35.9°C 31.2°F-0.4°C 10% 7.1 mph WSW11.4 kmh WSW 12.1 mph19.5 kmh 30.15 in1021.0 mb 0.00 in0.0 mm 0.00 in0.0 mm 0.00 in0.0 mm
06:21 PM 96.5°F35.8°C 31.1°F-0.5°C 10% 10.6 mph W17.1 kmh W 12.3 mph19.8 kmh 30.15 in1021.0 mb 0.00 in0.0 mm 0.00 in0.0 mm 0.00 in0.0 mm
06:26 PM 96.3°F35.7°C 31.0°F-0.6°C 10% 8.4 mph WSW13.5 kmh WSW 12.3 mph19.8 kmh 30.15 in1021.0 mb 0.00 in0.0 mm 0.00 in0.0 mm 0.00 in0.0 mm
06:31 PM 95.9°F35.5°C 30.7°F-0.7°C 10% 6.3 mph WNW10.1 kmh WNW 12.5 mph20.1 kmh 30.15 in1021.0 mb 0.00 in0.0 mm 0.00 in0.0 mm 0.00 in0.0 mm
06:36 PM 95.8°F35.4°C 30.6°F-0.8°C 10% 8.7 mph W14.0 kmh W 12.5 mph20.1 kmh 30.15 in1021.0 mb 0.00 in0.0 mm 0.00 in0.0 mm 0.00 in0.0 mm
06:41 PM 95.6°F35.3°C 30.4°F-0.9°C 10% 12.6 mph WSW20.3 kmh WSW 14.3 mph23.0 kmh 30.15 in1021.0 mb 0.00 in0.0 mm 0.00 in0.0 mm 0.00 in0.0 mm
06:45 PM 95.2°F35.1°C 30.2°F-1.0°C 10% 12.0 mph WSW19.3 kmh WSW 14.3 mph23.0 kmh 30.15 in1021.0 mb 0.00 in0.0 mm 0.00 in0.0 mm 0.00 in0.0 mm
06:50 PM 94.9°F34.9°C 29.9°F-1.2°C 10% 11.1 mph WSW17.9 kmh WSW 14.3 mph23.0 kmh 30.15 in1021.0 mb 0.00 in0.0 mm 0.00 in0.0 mm 0.00 in0.0 mm
06:55 PM 94.7°F34.8°C 29.8°F-1.2°C 10% 8.5 mph W13.7 kmh W 15.9 mph25.6 kmh 30.15 in1021.0 mb 0.00 in0.0 mm 0.00 in0.0 mm 0.00 in0.0 mm
07:01 PM 94.1°F34.5°C 29.3°F-1.5°C 10% 10.3 mph WSW16.6 kmh WSW 15.9 mph25.6 kmh 30.15 in1021.0 mb 0.00 in0.0 mm 0.00 in0.0 mm 0.00 in0.0 mm
07:06 PM 94.1°F34.5°C 29.3°F-1.5°C 10% 6.9 mph W11.1 kmh W 11.2 mph18.0 kmh 30.15 in1021.0 mb 0.00 in0.0 mm 0.00 in0.0 mm 0.00 in0.0 mm
07:11 PM 94.0°F34.4°C 29.2°F-1.6°C 10% 5.1 mph WNW8.2 kmh WNW 7.6 mph12.2 kmh 30.15 in1021.0 mb 0.00 in0.0 mm 0.00 in0.0 mm 0.00 in0.0 mm
07:16 PM 93.8°F34.3°C 29.1°F-1.6°C 10% 5.6 mph NW9.0 kmh NW 6.5 mph10.5 kmh 30.15 in1021.0 mb 0.00 in0.0 mm 0.00 in0.0 mm 0.00 in0.0 mm
07:21 PM 93.2°F34.0°C 28.6°F-1.9°C 10% 6.1 mph NW9.8 kmh NW 6.7 mph10.8 kmh 30.15 in1021.0 mb 0.00 in0.0 mm 0.00 in0.0 mm 0.00 in0.0 mm
07:26 PM 92.5°F33.6°C 28.1°F-2.2°C 10% 8.1 mph WNW13.0 kmh WNW 8.5 mph13.7 kmh 30.15 in1021.0 mb 0.00 in0.0 mm 0.00 in0.0 mm 0.00 in0.0 mm
07:31 PM 91.4°F33.0°C 27.4°F-2.6°C 10% 7.6 mph WNW12.2 kmh WNW 8.5 mph13.7 kmh 30.15 in1021.0 mb 0.00 in0.0 mm 0.00 in0.0 mm 0.00 in0.0 mm
07:36 PM 90.7°F32.6°C 28.5°F-1.9°C 11% 5.5 mph WNW8.9 kmh WNW 8.3 mph13.4 kmh 30.15 in1021.0 mb 0.00 in0.0 mm 0.00 in0.0 mm 0.00 in0.0 mm
07:41 PM 90.4°F32.4°C 28.3°F-2.1°C 11% 7.2 mph W11.6 kmh W 8.3 mph13.4 kmh 30.15 in1021.0 mb 0.00 in0.0 mm 0.00 in0.0 mm 0.00 in0.0 mm
07:46 PM 90.0°F32.2°C 28.0°F-2.2°C 11% 4.0 mph WNW6.4 kmh WNW 8.3 mph13.4 kmh 30.15 in1021.0 mb 0.00 in0.0 mm 0.00 in0.0 mm 0.00 in0.0 mm
07:51 PM 89.6°F32.0°C 27.6°F-2.4°C 11% 2.3 mph NW3.7 kmh NW 7.2 mph11.6 kmh 30.15 in1021.0 mb 0.00 in0.0 mm 0.00 in0.0 mm 0.00 in0.0 mm
07:56 PM 89.5°F31.9°C 29.3°F-1.5°C 12% 2.6 mph 4.2 kmh 3.8 mph6.1 kmh 30.15 in1021.0 mb 0.00 in0.0 mm 0.00 in0.0 mm 0.00 in0.0 mm
08:01 PM 88.9°F31.6°C 28.9°F-1.7°C 12% 2.7 mph 4.3 kmh 3.4 mph5.5 kmh 30.15 in1021.0 mb 0.00 in0.0 mm 0.00 in0.0 mm 0.00 in0.0 mm
08:06 PM 88.2°F31.2°C 28.4°F-2.0°C 12% 1.8 mph 2.9 kmh 3.4 mph5.5 kmh 30.15 in1021.0 mb 0.00 in0.0 mm 0.00 in0.0 mm 0.00 in0.0 mm
08:11 PM 87.5°F30.8°C 27.8°F-2.3°C 12% 1.2 mph NNW1.9 kmh NNW 2.5 mph4.0 kmh 30.15 in1021.0 mb 0.00 in0.0 mm 0.00 in0.0 mm 0.00 in0.0 mm
08:16 PM 86.6°F30.3°C 27.1°F-2.7°C 12% 2.2 mph S3.5 kmh S 2.5 mph4.0 kmh 30.15 in1021.0 mb 0.00 in0.0 mm 0.00 in0.0 mm 0.00 in0.0 mm
08:21 PM 85.3°F29.6°C 26.1°F-3.3°C 12% 1.0 mph SSW1.6 kmh SSW 2.5 mph4.0 kmh 30.15 in1021.0 mb 0.00 in0.0 mm 0.00 in0.0 mm 0.00 in0.0 mm
08:26 PM 84.6°F29.2°C 25.5°F-3.6°C 12% 1.1 mph SSW1.8 kmh SSW 2.2 mph3.5 kmh 30.15 in1021.0 mb 0.00 in0.0 mm 0.00 in0.0 mm 0.00 in0.0 mm
08:31 PM 83.7°F28.7°C 26.6°F-3.0°C 13% 1.5 mph S2.4 kmh S 2.2 mph3.5 kmh 30.16 in1021.3 mb 0.00 in0.0 mm 0.00 in0.0 mm 0.00 in0.0 mm
08:36 PM 82.4°F28.0°C 25.6°F-3.6°C 13% 1.8 mph S2.9 kmh S 2.0 mph3.2 kmh 30.16 in1021.3 mb 0.00 in0.0 mm 0.00 in0.0 mm 0.00 in0.0 mm
08:41 PM 81.7°F27.6°C 26.7°F-2.9°C 14% 1.1 mph SE1.8 kmh SE 2.5 mph4.0 kmh 30.16 in1021.3 mb 0.00 in0.0 mm 0.00 in0.0 mm 0.00 in0.0 mm
08:46 PM 80.8°F27.1°C 27.7°F-2.4°C 15% 1.8 mph SE2.9 kmh SE 2.5 mph4.0 kmh 30.16 in1021.3 mb 0.00 in0.0 mm 0.00 in0.0 mm 0.00 in0.0 mm
08:51 PM 80.3°F26.8°C 25.6°F-3.6°C 14% 2.9 mph N4.7 kmh N 3.6 mph5.8 kmh 30.16 in1021.3 mb 0.00 in0.0 mm 0.00 in0.0 mm 0.00 in0.0 mm
08:56 PM 79.0°F26.1°C 26.2°F-3.2°C 15% 4.3 mph 6.9 kmh 6.3 mph10.1 kmh 30.16 in1021.3 mb 0.00 in0.0 mm 0.00 in0.0 mm 0.00 in0.0 mm
09:01 PM 77.9°F25.5°C 25.4°F-3.7°C 15% 4.6 mph 7.4 kmh 6.3 mph10.1 kmh 30.16 in1021.3 mb 0.00 in0.0 mm 0.00 in0.0 mm 0.00 in0.0 mm
09:06 PM 77.4°F25.2°C 24.9°F-3.9°C 15% 4.0 mph 6.4 kmh 5.1 mph8.2 kmh 30.16 in1021.3 mb 0.00 in0.0 mm 0.00 in0.0 mm 0.00 in0.0 mm
09:11 PM 76.7°F24.8°C 24.4°F-4.2°C 15% 3.3 mph 5.3 kmh 4.7 mph7.6 kmh 30.16 in1021.3 mb 0.00 in0.0 mm 0.00 in0.0 mm 0.00 in0.0 mm
09:16 PM 75.6°F24.2°C 23.5°F-4.7°C 15% 2.7 mph 4.3 kmh 4.0 mph6.4 kmh 30.17 in1021.7 mb 0.00 in0.0 mm 0.00 in0.0 mm 0.00 in0.0 mm
09:21 PM 75.1°F23.9°C 23.1°F-4.9°C 15% 3.0 mph 4.8 kmh 4.0 mph6.4 kmh 30.17 in1021.7 mb 0.00 in0.0 mm 0.00 in0.0 mm 0.00 in0.0 mm
09:26 PM 74.5°F23.6°C 22.7°F-5.2°C 15% 2.7 mph 4.3 kmh 3.4 mph5.5 kmh 30.17 in1021.7 mb 0.00 in0.0 mm 0.00 in0.0 mm 0.00 in0.0 mm
09:31 PM 73.8°F23.2°C 23.8°F-4.6°C 16% 4.1 mph 6.6 kmh 4.7 mph7.6 kmh 30.17 in1021.7 mb 0.00 in0.0 mm 0.00 in0.0 mm 0.00 in0.0 mm
09:36 PM 72.9°F22.7°C 23.0°F-5.0°C 16% 5.9 mph 9.5 kmh 6.3 mph10.1 kmh 30.17 in1021.7 mb 0.00 in0.0 mm 0.00 in0.0 mm 0.00 in0.0 mm
09:41 PM 71.6°F22.0°C 22.0°F-5.6°C 16% 5.7 mph 9.2 kmh 7.2 mph11.6 kmh 30.17 in1021.7 mb 0.00 in0.0 mm 0.00 in0.0 mm 0.00 in0.0 mm
09:46 PM 70.7°F21.5°C 22.9°F-5.1°C 17% 5.1 mph N8.2 kmh N 7.2 mph11.6 kmh 30.17 in1021.7 mb 0.00 in0.0 mm 0.00 in0.0 mm 0.00 in0.0 mm
09:51 PM 70.2°F21.2°C 24.0°F-4.4°C 18% 6.8 mph ENE10.9 kmh ENE 6.9 mph11.1 kmh 30.18 in1022.0 mb 0.00 in0.0 mm 0.00 in0.0 mm 0.00 in0.0 mm
09:56 PM 69.8°F21.0°C 23.8°F-4.6°C 18% 5.6 mph NE9.0 kmh NE 6.9 mph11.1 kmh 30.18 in1022.0 mb 0.00 in0.0 mm 0.00 in0.0 mm 0.00 in0.0 mm
10:02 PM 70.2°F21.2°C 24.0°F-4.4°C 18% 7.1 mph 11.4 kmh 7.6 mph12.2 kmh 30.18 in1022.0 mb 0.00 in0.0 mm 0.00 in0.0 mm 0.00 in0.0 mm
10:07 PM 69.7°F20.9°C 23.6°F-4.7°C 18% 4.9 mph NNE7.9 kmh NNE 7.6 mph12.2 kmh 30.18 in1022.0 mb 0.00 in0.0 mm 0.00 in0.0 mm 0.00 in0.0 mm
10:12 PM 69.1°F20.6°C 23.2°F-4.9°C 18% 2.7 mph NNW4.3 kmh NNW 7.6 mph12.2 kmh 30.18 in1022.0 mb 0.00 in0.0 mm 0.00 in0.0 mm 0.00 in0.0 mm
10:17 PM 68.4°F20.2°C 22.7°F-5.2°C 18% 1.4 mph 2.3 kmh 5.6 mph9.0 kmh 30.18 in1022.0 mb 0.00 in0.0 mm 0.00 in0.0 mm 0.00 in0.0 mm
10:22 PM 67.7°F19.8°C 23.7°F-4.6°C 19% Calm Calm 5.6 mph9.0 kmh 30.18 in1022.0 mb 0.00 in0.0 mm 0.00 in0.0 mm 0.00 in0.0 mm
10:27 PM 67.3°F19.6°C 23.3°F-4.8°C 19% 1.1 mph ESE1.8 kmh ESE 1.8 mph2.9 kmh 30.18 in1022.0 mb 0.00 in0.0 mm 0.00 in0.0 mm 0.00 in0.0 mm
10:32 PM 67.0°F19.4°C 23.1°F-4.9°C 19% 1.0 mph E1.6 kmh E 1.1 mph1.8 kmh 30.18 in1022.0 mb 0.00 in0.0 mm 0.00 in0.0 mm 0.00 in0.0 mm
10:37 PM 66.6°F19.2°C 22.7°F-5.2°C 19% 1.3 mph E2.1 kmh E 1.3 mph2.1 kmh 30.17 in1021.7 mb 0.00 in0.0 mm 0.00 in0.0 mm 0.00 in0.0 mm
10:42 PM 66.2°F19.0°C 22.3°F-5.4°C 19% 2.3 mph N3.7 kmh N 2.5 mph4.0 kmh 30.18 in1022.0 mb 0.00 in0.0 mm 0.00 in0.0 mm 0.00 in0.0 mm
10:46 PM 66.2°F19.0°C 22.3°F-5.4°C 19% 2.4 mph NNE3.9 kmh NNE 2.7 mph4.3 kmh 30.18 in1022.0 mb 0.00 in0.0 mm 0.00 in0.0 mm 0.00 in0.0 mm
10:51 PM 65.9°F18.8°C 22.1°F-5.5°C 19% 1.6 mph NE2.6 kmh NE 2.7 mph4.3 kmh 30.18 in1022.0 mb 0.00 in0.0 mm 0.00 in0.0 mm 0.00 in0.0 mm
10:56 PM 65.9°F18.8°C 22.1°F-5.5°C 19% 1.1 mph NNE1.8 kmh NNE 2.7 mph4.3 kmh 30.18 in1022.0 mb 0.00 in0.0 mm 0.00 in0.0 mm 0.00 in0.0 mm
11:02 PM 65.7°F18.7°C 24.5°F-4.2°C 21% 1.1 mph NE1.8 kmh NE 2.7 mph4.3 kmh 30.18 in1022.0 mb 0.00 in0.0 mm 0.00 in0.0 mm 0.00 in0.0 mm
11:07 PM 65.5°F18.6°C 24.4°F-4.2°C 21% 0.9 mph NE1.4 kmh NE 1.3 mph2.1 kmh 30.18 in1022.0 mb 0.00 in0.0 mm 0.00 in0.0 mm 0.00 in0.0 mm
11:12 PM 65.2°F18.4°C 24.0°F-4.4°C 21% Calm Calm 1.3 mph2.1 kmh 30.18 in1022.0 mb 0.00 in0.0 mm 0.00 in0.0 mm 0.00 in0.0 mm
11:17 PM 64.8°F18.2°C 23.8°F-4.6°C 21% 3.4 mph 5.5 kmh 3.4 mph5.5 kmh 30.18 in1022.0 mb 0.00 in0.0 mm 0.00 in0.0 mm 0.00 in0.0 mm
11:22 PM 63.9°F17.7°C 23.0°F-5.0°C 21% 2.6 mph NNE4.2 kmh NNE 3.4 mph5.5 kmh 30.18 in1022.0 mb 0.00 in0.0 mm 0.00 in0.0 mm 0.00 in0.0 mm
11:27 PM 63.4°F17.4°C 22.6°F-5.2°C 21% 2.8 mph NNW4.5 kmh NNW 3.4 mph5.5 kmh 30.18 in1022.0 mb 0.00 in0.0 mm 0.00 in0.0 mm 0.00 in0.0 mm
11:32 PM 62.3°F16.8°C 21.8°F-5.7°C 21% 2.9 mph 4.7 kmh 4.0 mph6.4 kmh 30.18 in1022.0 mb 0.00 in0.0 mm 0.00 in0.0 mm 0.00 in0.0 mm
11:37 PM 61.2°F16.2°C 20.9°F-6.2°C 21% 4.8 mph N7.7 kmh N 5.6 mph9.0 kmh 30.18 in1022.0 mb 0.00 in0.0 mm 0.00 in0.0 mm 0.00 in0.0 mm
11:42 PM 60.7°F15.9°C 21.3°F-5.9°C 22% 5.5 mph 8.9 kmh 6.9 mph11.1 kmh 30.18 in1022.0 mb 0.00 in0.0 mm 0.00 in0.0 mm 0.00 in0.0 mm
11:47 PM 60.7°F15.9°C 21.3°F-5.9°C 22% 2.8 mph N4.5 kmh N 6.9 mph11.1 kmh 30.18 in1022.0 mb 0.00 in0.0 mm 0.00 in0.0 mm 0.00 in0.0 mm
11:52 PM 60.5°F15.8°C 21.3°F-5.9°C 22% 2.7 mph NNE4.3 kmh NNE 4.0 mph6.4 kmh 30.18 in1022.0 mb 0.00 in0.0 mm 0.00 in0.0 mm 0.00 in0.0 mm
11:57 PM 60.3°F15.7°C 21.1°F-6.1°C 22% 1.5 mph 2.4 kmh 4.0 mph6.4 kmh 30.18 in1022.0 mb 0.00 in0.0 mm 0.00 in0.0 mm 0.00 in0.0 mm